Airfield :







YOU CAN JOIN US ON...

 
LOGIN :

Register | Disclaimer

   EN    FR    IT 

 









Legend :    VFR   Marginal VFR   IFR   Intensive IFR   Very Intensive IFR
Visi :
Ceiling :
>= 8 km
>= 3000ft
5 to 8 km
1000 to 3000 ft
1500m to 5 km
500 to 1000 ft
800 to 1500m
200 to 500 ft
< 800m
< 200 ft
Symbols :   Thunderstorms  Fog  Heavy snow  Heavy precipitations  Wind > 20 kt






- Airport Elevation : 72 ft
- IATA code : YDF


CYDF - Deer Lake

CURRENT METAR :
  • 170400Z 26015G23KT 6SM -SHSN BLSN FEW007 BKN020 M04/M06 A2982 RMK SF2SC4 SLP100

EXPIRED METARs :
  • 170300Z 26013G23KT 3SM -SHSN BLSN SCT005 BKN015 M04/M06 A2977 RMK SF3SC3 /S01/ PRESRR SLP084
  • 170200Z 26018G29KT 3SM -SHSN BLSN SCT005 BKN015 M04/M07 A2972 RMK SF3SC3 SLP065

TAF TAF CYDF
Valid from the 17 at 02:00 until the 17 at 14:00 UTC


170138Z 1702/1714 25020G30KT 6SM -SHSN BKN025
TEMPO 1702/1704 1SM -SHSN BLSN VV006
FM170400 25018G28KT P6SM BKN025
TEMPO 1704/1712 2SM -SHSN OVC015
FM171200 26015G25KT P6SM BKN025 RMK NXT FCST BY 170800Z



MET'MAP, your aeronautical weather chart ! - Copyright ORBIFLY December 2007 - Disclaimer

ORBIFLY MET'MAP TEAM :

Programming & Development : Alexandra Zaïnal
Concept & Development : Baudouin d'Aumeries
Co-Development & Prog : Marc-Olivier Méhu
Technical & hardware support : Manuel Goepfert

Contact : metmap@orbifly.com




SOURCES & CREDITS :

   NOAA